Terminal Aerodrome Forecast
Issued by NWS Twin Cities, MN

Home | Current Version | Previous Version | Graphics & Text | Print | Product List | Glossary On
Versions: 1 2 3 4 5 6 7 8 9 10 11 12 13 14 15 16 17 18 19 20 21 22 23 24
147
FTUS43 KMPX 192056 AAA
TAFMSP
TAF AMD
KMSP 192056Z 1921/2024 23009KT P6SM FEW200 BKN250
     FM200200 26005KT P6SM BKN200
     FM200500 29003KT P6SM BKN150
     FM200900 29005KT P6SM BKN100=

USA.gov is the U.S. government's official web portal to all federal, state and local government web resources and services.